METAR AND TAF INFORMATION
METAR FOR KLGB
KLGB 220856Z AUTO 31003KT 10SM BKN013 16/12 A2994 RMK AO2 T01560117
KLGB 220853Z AUTO 30004KT 10SM SCT013 SCT021 16/12 A2995 RMK AO2 SLP140 T01560117 58006
KLGB 220753Z AUTO 31004KT 10SM SCT018 16/12 A2996 RMK AO2 SLP145 T01560117 402220144
KLGB 220653Z AUTO 31005KT 10SM BKN018 16/11 A2997 RMK AO2 SLP147 T01560111
KLGB 220547Z 2206/2306 30005KT P6SM SKC
FM220700 VRB03KT P6SM BKN012
FM221900 19006KT P6SM SCT030
FM230000 30006KT P6SM SCT030

 AIRPORT MAP

 RUNWAY INFORMATION
Runway 07L Runway length 6192 ft Runway width 150 ft
Runway elevation 52 ft Runway displaced threshold 1305 ft Runway heading 90
Runway 25R Runway length 6192 ft Runway width 150 ft
Runway elevation 39 ft Runway displaced threshold 531 ft Runway heading 270
Runway 07R Runway length 5420 ft Runway width 150 ft
Runway elevation 50 ft Runway displaced threshold 0 ft Runway heading 90
Runway 25L Runway length 5420 ft Runway width 150 ft
Runway elevation 29 ft Runway displaced threshold 0 ft Runway heading 270
Runway 12 Runway length 10000 ft Runway width 200 ft
Runway elevation 52 ft Runway displaced threshold 1341 ft Runway heading 135
Runway 30 Runway length 10000 ft Runway width 200 ft
Runway elevation 30 ft Runway displaced threshold 1989 ft Runway heading 315
Runway 16L Runway length 4267 ft Runway width 75 ft
Runway elevation 40 ft Runway displaced threshold 415 ft Runway heading 180
Runway 34R Runway length 4267 ft Runway width 75 ft
Runway elevation 33 ft Runway displaced threshold 292 ft Runway heading 0
Runway 16R Runway length 4470 ft Runway width 75 ft
Runway elevation 50 ft Runway displaced threshold 310 ft Runway heading 180
Runway 34L Runway length 4470 ft Runway width 75 ft
Runway elevation 41 ft Runway displaced threshold 0 ft Runway heading 360

 AIRPORT FREQUENCIES
Type APP Name SOCAL APP Frequency 124.65 MHZ
Type ATIS Name ATIS Frequency 127.75 MHZ
Type CLD Name CLNC DEL Frequency 118.15 MHZ
Type CTAF Name CTAF Frequency 119.4 MHZ
Type DEP Name SOCAL DEP Frequency 127.2 MHZ
Type GND Name GND Frequency 133 MHZ
Type TWR Name TWR Frequency 119.4 MHZ
Type UNIC Name UNICOM Frequency 122.95 MHZ

 AIRPORT NEAR NAVIGATION AIDS

-